sensor_id;sensor_type;location;lat;lon;timestamp;pressure;altitude;pressure_sealevel;temperature;humidity
80323;BME280;69636;52.372;13.610;2024-01-15T00:00:47;99141.53;;;0.98;100.00
80323;BME280;69636;52.372;13.610;2024-01-15T00:03:14;99146.75;;;0.98;100.00
80323;BME280;69636;52.372;13.610;2024-01-15T00:05:43;99141.34;;;0.90;100.00
80323;BME280;69636;52.372;13.610;2024-01-15T00:08:10;99133.56;;;0.99;100.00
80323;BME280;69636;52.372;13.610;2024-01-15T00:10:38;99129.25;;;0.89;100.00
80323;BME280;69636;52.372;13.610;2024-01-15T00:13:05;99133.09;;;0.85;100.00
80323;BME280;69636;52.372;13.610;2024-01-15T00:15:32;99117.66;;;0.82;100.00
80323;BME280;69636;52.372;13.610;2024-01-15T00:18:00;99115.19;;;0.80;100.00
80323;BME280;69636;52.372;13.610;2024-01-15T00:20:27;99123.16;;;0.79;100.00
80323;BME280;69636;52.372;13.610;2024-01-15T00:22:59;99113.50;;;0.70;100.00
80323;BME280;69636;52.372;13.610;2024-01-15T00:25:26;99107.16;;;0.62;100.00
80323;BME280;69636;52.372;13.610;2024-01-15T00:27:53;99105.38;;;0.63;100.00
80323;BME280;69636;52.372;13.610;2024-01-15T00:30:20;99100.72;;;0.66;100.00
80323;BME280;69636;52.372;13.610;2024-01-15T00:32:48;99099.31;;;0.62;100.00
80323;BME280;69636;52.372;13.610;2024-01-15T00:35:15;99092.31;;;0.63;100.00
80323;BME280;69636;52.372;13.610;2024-01-15T00:37:43;99082.94;;;0.60;100.00
80323;BME280;69636;52.372;13.610;2024-01-15T00:40:11;99088.75;;;0.64;100.00
80323;BME280;69636;52.372;13.610;2024-01-15T00:42:39;99075.25;;;0.59;100.00
80323;BME280;69636;52.372;13.610;2024-01-15T00:45:06;99080.34;;;0.60;100.00
80323;BME280;69636;52.372;13.610;2024-01-15T00:47:34;99075.38;;;0.57;100.00
80323;BME280;69636;52.372;13.610;2024-01-15T00:50:01;99074.41;;;0.58;100.00
80323;BME280;69636;52.372;13.610;2024-01-15T00:52:28;99063.97;;;0.58;100.00
80323;BME280;69636;52.372;13.610;2024-01-15T00:54:56;99052.84;;;0.56;100.00
80323;BME280;69636;52.372;13.610;2024-01-15T00:57:24;99052.88;;;0.66;100.00
80323;BME280;69636;52.372;13.610;2024-01-15T00:59:52;99042.81;;;0.61;100.00
80323;BME280;69636;52.372;13.610;2024-01-15T01:02:19;99043.13;;;0.68;100.00
80323;BME280;69636;52.372;13.610;2024-01-15T01:04:46;99049.56;;;0.64;100.00
80323;BME280;69636;52.372;13.610;2024-01-15T01:07:14;99045.47;;;0.71;100.00
80323;BME280;69636;52.372;13.610;2024-01-15T01:09:41;99053.72;;;0.66;100.00
80323;BME280;69636;52.372;13.610;2024-01-15T01:12:08;99035.44;;;0.66;100.00
80323;BME280;69636;52.372;13.610;2024-01-15T01:14:37;99031.72;;;0.69;100.00
80323;BME280;69636;52.372;13.610;2024-01-15T01:17:04;99030.22;;;0.66;100.00
80323;BME280;69636;52.372;13.610;2024-01-15T01:19:32;99036.25;;;0.67;100.00
80323;BME280;69636;52.372;13.610;2024-01-15T01:21:59;99029.69;;;0.73;100.00
80323;BME280;69636;52.372;13.610;2024-01-15T01:24:27;99030.47;;;0.63;100.00
80323;BME280;69636;52.372;13.610;2024-01-15T01:26:54;99022.63;;;0.63;100.00
80323;BME280;69636;52.372;13.610;2024-01-15T01:29:21;99021.41;;;0.67;100.00
80323;BME280;69636;52.372;13.610;2024-01-15T01:31:50;99024.97;;;0.66;100.00
80323;BME280;69636;52.372;13.610;2024-01-15T01:34:17;99028.81;;;0.62;100.00
80323;BME280;69636;52.372;13.610;2024-01-15T01:36:44;99029.38;;;0.66;100.00
80323;BME280;69636;52.372;13.610;2024-01-15T01:39:12;99032.56;;;0.70;100.00
80323;BME280;69636;52.372;13.610;2024-01-15T01:41:39;99033.25;;;0.72;100.00
80323;BME280;69636;52.372;13.610;2024-01-15T01:44:07;99028.28;;;0.68;100.00
80323;BME280;69636;52.372;13.610;2024-01-15T01:46:35;99029.22;;;0.58;100.00
80323;BME280;69636;52.372;13.610;2024-01-15T01:49:05;99034.81;;;0.53;100.00
80323;BME280;69636;52.372;13.610;2024-01-15T01:51:34;99025.06;;;0.55;100.00
80323;BME280;69636;52.372;13.610;2024-01-15T01:54:02;99021.19;;;0.40;100.00
80323;BME280;69636;52.372;13.610;2024-01-15T01:56:29;99022.91;;;0.30;100.00
80323;BME280;69636;52.372;13.610;2024-01-15T01:58:57;99028.38;;;0.27;100.00
80323;BME280;69636;52.372;13.610;2024-01-15T02:01:24;99020.97;;;0.22;100.00
80323;BME280;69636;52.372;13.610;2024-01-15T02:03:52;99028.34;;;0.17;100.00
80323;BME280;69636;52.372;13.610;2024-01-15T02:06:21;99010.22;;;0.16;100.00
80323;BME280;69636;52.372;13.610;2024-01-15T02:08:48;99017.34;;;0.14;100.00
80323;BME280;69636;52.372;13.610;2024-01-15T02:11:16;99028.66;;;0.24;100.00
80323;BME280;69636;52.372;13.610;2024-01-15T02:13:43;99021.81;;;0.32;100.00
80323;BME280;69636;52.372;13.610;2024-01-15T02:16:10;99021.31;;;0.39;100.00
80323;BME280;69636;52.372;13.610;2024-01-15T02:18:41;99025.44;;;0.41;100.00
80323;BME280;69636;52.372;13.610;2024-01-15T02:21:09;99028.88;;;0.42;100.00
80323;BME280;69636;52.372;13.610;2024-01-15T02:23:38;99026.41;;;0.40;100.00
80323;BME280;69636;52.372;13.610;2024-01-15T02:26:05;99019.69;;;0.47;100.00
80323;BME280;69636;52.372;13.610;2024-01-15T02:28:33;99020.66;;;0.46;100.00
80323;BME280;69636;52.372;13.610;2024-01-15T02:31:01;99019.69;;;0.47;100.00
80323;BME280;69636;52.372;13.610;2024-01-15T02:33:28;99019.44;;;0.50;100.00
80323;BME280;69636;52.372;13.610;2024-01-15T02:35:56;99015.31;;;0.48;100.00
80323;BME280;69636;52.372;13.610;2024-01-15T02:38:23;99032.06;;;0.55;100.00
80323;BME280;69636;52.372;13.610;2024-01-15T02:40:52;99029.22;;;0.58;100.00
80323;BME280;69636;52.372;13.610;2024-01-15T02:43:19;99025.75;;;0.57;100.00
80323;BME280;69636;52.372;13.610;2024-01-15T02:45:46;99024.94;;;0.47;100.00
80323;BME280;69636;52.372;13.610;2024-01-15T02:48:14;99012.28;;;0.52;100.00
80323;BME280;69636;52.372;13.610;2024-01-15T02:50:42;99010.66;;;0.51;100.00
80323;BME280;69636;52.372;13.610;2024-01-15T02:53:09;99009.53;;;0.44;100.00
80323;BME280;69636;52.372;13.610;2024-01-15T02:55:37;99022.13;;;0.39;100.00
80323;BME280;69636;52.372;13.610;2024-01-15T02:58:05;99008.81;;;0.42;100.00
80323;BME280;69636;52.372;13.610;2024-01-15T03:00:32;99002.38;;;0.46;100.00
80323;BME280;69636;52.372;13.610;2024-01-15T03:03:00;98997.16;;;0.46;100.00
80323;BME280;69636;52.372;13.610;2024-01-15T03:05:27;98993.84;;;0.44;100.00
80323;BME280;69636;52.372;13.610;2024-01-15T03:07:54;98988.06;;;0.41;100.00
80323;BME280;69636;52.372;13.610;2024-01-15T03:10:21;98990.69;;;0.41;100.00
80323;BME280;69636;52.372;13.610;2024-01-15T03:12:49;98999.34;;;0.41;100.00
80323;BME280;69636;52.372;13.610;2024-01-15T03:15:18;98997.94;;;0.37;100.00
80323;BME280;69636;52.372;13.610;2024-01-15T03:17:45;98991.63;;;0.40;100.00
80323;BME280;69636;52.372;13.610;2024-01-15T03:20:12;98991.63;;;0.40;100.00
80323;BME280;69636;52.372;13.610;2024-01-15T03:22:39;98978.72;;;0.38;100.00
80323;BME280;69636;52.372;13.610;2024-01-15T03:25:07;98987.25;;;0.40;100.00
80323;BME280;69636;52.372;13.610;2024-01-15T03:27:34;98980.38;;;0.39;100.00
80323;BME280;69636;52.372;13.610;2024-01-15T03:30:02;98975.47;;;0.46;100.00
80323;BME280;69636;52.372;13.610;2024-01-15T03:32:31;98970.81;;;0.49;100.00
80323;BME280;69636;52.372;13.610;2024-01-15T03:34:58;98979.31;;;0.51;100.00
80323;BME280;69636;52.372;13.610;2024-01-15T03:37:25;98973.13;;;0.52;100.00
80323;BME280;69636;52.372;13.610;2024-01-15T03:39:52;98973.81;;;0.54;100.00
80323;BME280;69636;52.372;13.610;2024-01-15T03:42:20;98983.16;;;0.57;100.00
80323;BME280;69636;52.372;13.610;2024-01-15T03:44:47;98971.38;;;0.62;100.00
80323;BME280;69636;52.372;13.610;2024-01-15T03:47:14;98967.78;;;0.63;100.00
80323;BME280;69636;52.372;13.610;2024-01-15T03:49:43;98972.47;;;0.60;100.00
80323;BME280;69636;52.372;13.610;2024-01-15T03:52:10;98970.53;;;0.62;100.00
80323;BME280;69636;52.372;13.610;2024-01-15T03:54:38;98970.84;;;0.68;100.00
80323;BME280;69636;52.372;13.610;2024-01-15T03:57:05;98969.44;;;0.64;100.00
80323;BME280;69636;52.372;13.610;2024-01-15T03:59:32;98960.78;;;0.64;100.00
80323;BME280;69636;52.372;13.610;2024-01-15T04:02:00;98949.94;;;0.68;100.00
80323;BME280;69636;52.372;13.610;2024-01-15T04:04:27;98952.97;;;0.64;100.00
80323;BME280;69636;52.372;13.610;2024-01-15T04:06:56;98959.97;;;0.63;100.00
80323;BME280;69636;52.372;13.610;2024-01-15T04:09:23;98951.19;;;0.64;100.00
80323;BME280;69636;52.372;13.610;2024-01-15T04:11:51;98940.59;;;0.66;100.00
80323;BME280;69636;52.372;13.610;2024-01-15T04:14:18;98942.13;;;0.68;100.00
80323;BME280;69636;52.372;13.610;2024-01-15T04:16:45;98935.94;;;0.70;100.00
80323;BME280;69636;52.372;13.610;2024-01-15T04:19:12;98927.13;;;0.71;100.00
80323;BME280;69636;52.372;13.610;2024-01-15T04:21:40;98916.44;;;0.74;100.00
80323;BME280;69636;52.372;13.610;2024-01-15T04:24:09;98919.31;;;0.71;100.00
80323;BME280;69636;52.372;13.610;2024-01-15T04:26:36;98930.72;;;0.70;100.00
80323;BME280;69636;52.372;13.610;2024-01-15T04:29:03;98924.94;;;0.76;100.00
80323;BME280;69636;52.372;13.610;2024-01-15T04:31:31;98932.09;;;0.74;100.00
80323;BME280;69636;52.372;13.610;2024-01-15T04:33:58;98924.94;;;0.76;100.00
80323;BME280;69636;52.372;13.610;2024-01-15T04:36:25;98920.25;;;0.79;100.00
80323;BME280;69636;52.372;13.610;2024-01-15T04:38:53;98914.50;;;0.76;100.00
80323;BME280;69636;52.372;13.610;2024-01-15T04:41:21;98910.63;;;0.80;100.00
80323;BME280;69636;52.372;13.610;2024-01-15T04:43:49;98911.19;;;0.83;100.00
80323;BME280;69636;52.372;13.610;2024-01-15T04:46:16;98905.69;;;0.86;100.00
80323;BME280;69636;52.372;13.610;2024-01-15T04:48:43;98916.28;;;0.85;100.00
80323;BME280;69636;52.372;13.610;2024-01-15T04:51:11;98912.97;;;0.83;100.00
80323;BME280;69636;52.372;13.610;2024-01-15T04:53:38;98908.03;;;0.89;100.00
80323;BME280;69636;52.372;13.610;2024-01-15T04:56:05;98904.59;;;0.89;100.00
80323;BME280;69636;52.372;13.610;2024-01-15T04:58:34;98910.94;;;0.96;100.00
80323;BME280;69636;52.372;13.610;2024-01-15T05:01:01;98899.94;;;0.92;100.00
80323;BME280;69636;52.372;13.610;2024-01-15T05:03:28;98892.09;;;0.92;100.00
80323;BME280;69636;52.372;13.610;2024-01-15T05:05:56;98886.03;;;0.92;100.00
80323;BME280;69636;52.372;13.610;2024-01-15T05:08:23;98885.63;;;0.87;100.00
80323;BME280;69636;52.372;13.610;2024-01-15T05:10:50;98886.16;;;0.81;100.00
80323;BME280;69636;52.372;13.610;2024-01-15T05:13:17;98880.94;;;0.81;100.00
80323;BME280;69636;52.372;13.610;2024-01-15T05:15:46;98896.63;;;0.81;100.00
80323;BME280;69636;52.372;13.610;2024-01-15T05:18:13;98902.13;;;0.78;100.00
80323;BME280;69636;52.372;13.610;2024-01-15T05:20:40;98893.31;;;0.88;100.00
80323;BME280;69636;52.372;13.610;2024-01-15T05:23:08;98898.41;;;0.90;100.00
80323;BME280;69636;52.372;13.610;2024-01-15T05:25:35;98904.88;;;0.86;100.00
80323;BME280;69636;52.372;13.610;2024-01-15T05:28:02;98909.41;;;0.84;100.00
80323;BME280;69636;52.372;13.610;2024-01-15T05:30:30;98908.97;;;0.79;100.00
80323;BME280;69636;52.372;13.610;2024-01-15T05:32:58;98907.91;;;0.72;100.00
80323;BME280;69636;52.372;13.610;2024-01-15T05:35:25;98903.91;;;0.67;100.00
80323;BME280;69636;52.372;13.610;2024-01-15T05:37:53;98903.38;;;0.74;100.00
80323;BME280;69636;52.372;13.610;2024-01-15T05:40:20;98900.31;;;0.78;100.00
80323;BME280;69636;52.372;13.610;2024-01-15T05:42:47;98889.06;;;0.78;100.00
80323;BME280;69636;52.372;13.610;2024-01-15T05:45:15;98889.19;;;0.86;100.00
80323;BME280;69636;52.372;13.610;2024-01-15T05:47:42;98882.75;;;0.90;100.00
80323;BME280;69636;52.372;13.610;2024-01-15T05:50:11;98888.09;;;0.88;100.00
80323;BME280;69636;52.372;13.610;2024-01-15T05:52:38;98869.13;;;0.96;100.00
80323;BME280;69636;52.372;13.610;2024-01-15T05:55:06;98872.31;;;0.99;100.00
80323;BME280;69636;52.372;13.610;2024-01-15T05:57:36;98877.09;;;1.04;100.00
80323;BME280;69636;52.372;13.610;2024-01-15T06:00:05;98874.78;;;1.01;100.00
80323;BME280;69636;52.372;13.610;2024-01-15T06:02:32;98892.25;;;1.00;100.00
80323;BME280;69636;52.372;13.610;2024-01-15T06:05:00;98864.44;;;1.09;100.00
80323;BME280;69636;52.372;13.610;2024-01-15T06:07:28;98874.59;;;1.12;100.00
80323;BME280;69636;52.372;13.610;2024-01-15T06:09:56;98876.13;;;1.05;100.00
80323;BME280;69636;52.372;13.610;2024-01-15T06:12:23;98882.72;;;0.80;100.00
80323;BME280;69636;52.372;13.610;2024-01-15T06:14:50;98879.72;;;0.65;100.00
80323;BME280;69636;52.372;13.610;2024-01-15T06:17:18;98876.38;;;0.54;100.00
80323;BME280;69636;52.372;13.610;2024-01-15T06:19:45;98879.69;;;0.56;100.00
80323;BME280;69636;52.372;13.610;2024-01-15T06:22:12;98882.16;;;0.57;100.00
80323;BME280;69636;52.372;13.610;2024-01-15T06:24:41;98879.84;;;0.64;100.00
80323;BME280;69636;52.372;13.610;2024-01-15T06:27:08;98876.28;;;0.65;100.00
80323;BME280;69636;52.372;13.610;2024-01-15T06:29:37;98882.75;;;0.71;100.00
80323;BME280;69636;52.372;13.610;2024-01-15T06:32:05;98878.91;;;0.75;100.00
80323;BME280;69636;52.372;13.610;2024-01-15T06:34:32;98879.59;;;0.77;100.00
80323;BME280;69636;52.372;13.610;2024-01-15T06:36:59;98875.44;;;0.84;100.00
80323;BME280;69636;52.372;13.610;2024-01-15T06:39:27;98888.38;;;0.85;100.00
80323;BME280;69636;52.372;13.610;2024-01-15T06:41:56;98884.53;;;0.89;100.00
80323;BME280;69636;52.372;13.610;2024-01-15T06:44:23;98894.69;;;0.83;100.00
80323;BME280;69636;52.372;13.610;2024-01-15T06:46:50;98896.34;;;0.84;100.00
80323;BME280;69636;52.372;13.610;2024-01-15T06:49:18;98888.91;;;0.79;100.00
80323;BME280;69636;52.372;13.610;2024-01-15T06:51:45;98890.16;;;0.85;100.00
80323;BME280;69636;52.372;13.610;2024-01-15T06:54:16;98905.00;;;0.84;100.00
80323;BME280;69636;52.372;13.610;2024-01-15T06:56:43;98880.81;;;0.92;100.00
80323;BME280;69636;52.372;13.610;2024-01-15T06:59:12;98892.91;;;0.93;100.00
80323;BME280;69636;52.372;13.610;2024-01-15T07:01:42;98895.94;;;0.98;100.00
80323;BME280;69636;52.372;13.610;2024-01-15T07:04:10;98895.81;;;0.99;100.00
80323;BME280;69636;52.372;13.610;2024-01-15T07:06:37;98896.09;;;0.96;100.00
80323;BME280;69636;52.372;13.610;2024-01-15T07:09:05;98882.63;;;1.01;100.00
80323;BME280;69636;52.372;13.610;2024-01-15T07:11:32;98889.63;;;1.00;100.00
80323;BME280;69636;52.372;13.610;2024-01-15T07:14:00;98899.13;;;1.01;100.00
80323;BME280;69636;52.372;13.610;2024-01-15T07:16:28;98888.53;;;1.03;100.00
80323;BME280;69636;52.372;13.610;2024-01-15T07:19:04;98887.94;;;1.09;100.00
80323;BME280;69636;52.372;13.610;2024-01-15T07:21:32;98890.84;;;1.16;100.00
80323;BME280;69636;52.372;13.610;2024-01-15T07:23:59;98894.28;;;1.16;100.00
80323;BME280;69636;52.372;13.610;2024-01-15T07:26:26;98901.84;;;1.19;100.00
80323;BME280;69636;52.372;13.610;2024-01-15T07:28:54;98893.31;;;1.17;100.00
80323;BME280;69636;52.372;13.610;2024-01-15T07:31:21;98904.72;;;1.26;100.00
80323;BME280;69636;52.372;13.610;2024-01-15T07:33:50;98909.50;;;1.30;100.00
80323;BME280;69636;52.372;13.610;2024-01-15T07:36:17;98903.78;;;1.27;100.00
80323;BME280;69636;52.372;13.610;2024-01-15T07:38:45;98910.78;;;1.26;100.00
80323;BME280;69636;52.372;13.610;2024-01-15T07:41:13;98913.41;;;1.26;100.00
80323;BME280;69636;52.372;13.610;2024-01-15T07:43:40;98916.56;;;1.30;100.00
80323;BME280;69636;52.372;13.610;2024-01-15T07:46:08;98936.66;;;1.29;100.00
80323;BME280;69636;52.372;13.610;2024-01-15T07:48:35;98930.97;;;1.34;100.00
80323;BME280;69636;52.372;13.610;2024-01-15T07:51:04;98934.28;;;1.36;100.00
80323;BME280;69636;52.372;13.610;2024-01-15T07:53:31;98936.22;;;1.44;100.00
80323;BME280;69636;52.372;13.610;2024-01-15T07:55:59;98931.81;;;1.44;100.00
80323;BME280;69636;52.372;13.610;2024-01-15T07:58:26;98934.28;;;1.46;100.00
80323;BME280;69636;52.372;13.610;2024-01-15T08:00:53;98940.06;;;1.49;100.00
80323;BME280;69636;52.372;13.610;2024-01-15T08:03:21;98932.63;;;1.45;100.00
80323;BME280;69636;52.372;13.610;2024-01-15T08:05:49;98930.84;;;1.45;100.00
80323;BME280;69636;52.372;13.610;2024-01-15T08:08:17;98938.00;;;1.43;100.00
80323;BME280;69636;52.372;13.610;2024-01-15T08:10:44;98939.91;;;1.51;100.00
80323;BME280;69636;52.372;13.610;2024-01-15T08:13:12;98948.31;;;1.45;100.00
80323;BME280;69636;52.372;13.610;2024-01-15T08:15:40;98939.09;;;1.41;100.00
80323;BME280;69636;52.372;13.610;2024-01-15T08:18:08;98957.66;;;1.47;100.00
80323;BME280;69636;52.372;13.610;2024-01-15T08:20:35;98938.69;;;1.55;100.00
80323;BME280;69636;52.372;13.610;2024-01-15T08:23:03;98938.81;;;1.53;100.00
80323;BME280;69636;52.372;13.610;2024-01-15T08:25:32;98945.97;;;1.51;100.00
80323;BME280;69636;52.372;13.610;2024-01-15T08:27:59;98932.31;;;1.57;100.00
80323;BME280;69636;52.372;13.610;2024-01-15T08:30:27;98933.81;;;1.60;100.00
80323;BME280;69636;52.372;13.610;2024-01-15T08:32:54;98946.63;;;1.63;100.00
80323;BME280;69636;52.372;13.610;2024-01-15T08:35:24;98951.84;;;1.63;100.00
80323;BME280;69636;52.372;13.610;2024-01-15T08:37:52;98952.97;;;1.60;100.00
80323;BME280;69636;52.372;13.610;2024-01-15T08:40:19;98963.69;;;1.57;100.00
80323;BME280;69636;52.372;13.610;2024-01-15T08:42:48;98962.06;;;1.47;100.00
80323;BME280;69636;52.372;13.610;2024-01-15T08:45:15;98960.44;;;1.46;100.00
80323;BME280;69636;52.372;13.610;2024-01-15T08:47:43;98963.44;;;1.51;100.00
80323;BME280;69636;52.372;13.610;2024-01-15T08:50:10;98954.91;;;1.49;100.00
80323;BME280;69636;52.372;13.610;2024-01-15T08:52:37;98949.94;;;1.65;100.00
80323;BME280;69636;52.372;13.610;2024-01-15T08:55:05;98948.25;;;1.74;100.00
80323;BME280;69636;52.372;13.610;2024-01-15T08:57:32;98956.25;;;1.72;100.00
80323;BME280;69636;52.372;13.610;2024-01-15T09:00:02;98962.88;;;1.66;100.00
80323;BME280;69636;52.372;13.610;2024-01-15T09:02:29;98966.44;;;1.65;100.00
80323;BME280;69636;52.372;13.610;2024-01-15T09:04:56;98964.50;;;1.67;100.00
80323;BME280;69636;52.372;13.610;2024-01-15T09:07:24;98965.63;;;1.65;100.00
80323;BME280;69636;52.372;13.610;2024-01-15T09:09:51;98960.66;;;1.62;100.00
80323;BME280;69636;52.372;13.610;2024-01-15T09:12:19;98964.38;;;1.59;100.00
80323;BME280;69636;52.372;13.610;2024-01-15T09:14:46;98965.34;;;1.58;100.00
80323;BME280;69636;52.372;13.610;2024-01-15T09:17:15;98966.47;;;1.56;100.00
80323;BME280;69636;52.372;13.610;2024-01-15T09:19:42;98965.91;;;1.62;100.00
80323;BME280;69636;52.372;13.610;2024-01-15T09:22:09;98980.63;;;1.63;100.00
80323;BME280;69636;52.372;13.610;2024-01-15T09:24:37;98979.09;;;1.60;100.00
80323;BME280;69636;52.372;13.610;2024-01-15T09:27:04;98985.31;;;1.59;100.00
80323;BME280;69636;52.372;13.610;2024-01-15T09:29:31;98987.09;;;1.59;100.00
80323;BME280;69636;52.372;13.610;2024-01-15T09:31:59;98989.56;;;1.60;100.00
80323;BME280;69636;52.372;13.610;2024-01-15T09:34:28;98988.06;;;1.58;100.00
80323;BME280;69636;52.372;13.610;2024-01-15T09:36:55;98992.91;;;1.53;100.00
80323;BME280;69636;52.372;13.610;2024-01-15T09:39:22;98999.22;;;1.50;100.00
80323;BME280;69636;52.372;13.610;2024-01-15T09:41:50;99001.16;;;1.48;100.00
80323;BME280;69636;52.372;13.610;2024-01-15T09:44:18;99002.69;;;1.51;100.00
80323;BME280;69636;52.372;13.610;2024-01-15T09:46:46;98999.47;;;1.57;100.00
80323;BME280;69636;52.372;13.610;2024-01-15T09:49:14;99000.31;;;1.57;100.00
80323;BME280;69636;52.372;13.610;2024-01-15T09:51:44;99005.13;;;1.62;100.00
80323;BME280;69636;52.372;13.610;2024-01-15T09:54:19;99002.09;;;1.66;100.00
80323;BME280;69636;52.372;13.610;2024-01-15T09:56:47;98994.66;;;1.72;100.00
80323;BME280;69636;52.372;13.610;2024-01-15T09:59:15;99008.84;;;1.69;100.00
80323;BME280;69636;52.372;13.610;2024-01-15T10:01:43;98993.97;;;1.69;100.00
80323;BME280;69636;52.372;13.610;2024-01-15T10:04:11;98985.72;;;1.74;100.00
80323;BME280;69636;52.372;13.610;2024-01-15T10:06:39;98974.44;;;1.74;100.00
80323;BME280;69636;52.372;13.610;2024-01-15T10:09:08;98988.06;;;1.77;100.00
80323;BME280;69636;52.372;13.610;2024-01-15T10:11:35;98972.06;;;1.80;100.00
80323;BME280;69636;52.372;13.610;2024-01-15T10:14:02;98982.91;;;1.85;100.00
80323;BME280;69636;52.372;13.610;2024-01-15T10:16:31;98983.19;;;1.82;100.00
80323;BME280;69636;52.372;13.610;2024-01-15T10:18:59;98984.00;;;1.92;100.00
80323;BME280;69636;52.372;13.610;2024-01-15T10:21:26;98982.09;;;1.94;100.00
80323;BME280;69636;52.372;13.610;2024-01-15T10:23:54;98978.50;;;1.95;100.00
80323;BME280;69636;52.372;13.610;2024-01-15T10:26:31;98982.63;;;1.88;100.00
80323;BME280;69636;52.372;13.610;2024-01-15T10:28:59;98980.59;;;1.82;100.00
80323;BME280;69636;52.372;13.610;2024-01-15T10:31:27;98977.00;;;1.83;100.00
80323;BME280;69636;52.372;13.610;2024-01-15T10:34:09;98968.88;;;1.86;100.00
80323;BME280;69636;52.372;13.610;2024-01-15T10:36:39;98969.56;;;1.88;100.00
80323;BME280;69636;52.372;13.610;2024-01-15T10:39:07;98967.63;;;1.90;100.00
80323;BME280;69636;52.372;13.610;2024-01-15T10:41:35;98960.19;;;1.95;100.00
80323;BME280;69636;52.372;13.610;2024-01-15T10:44:03;98978.91;;;2.00;100.00
80323;BME280;69636;52.372;13.610;2024-01-15T10:46:31;98960.03;;;2.07;100.00
80323;BME280;69636;52.372;13.610;2024-01-15T10:48:59;98972.78;;;2.10;100.00
80323;BME280;69636;52.372;13.610;2024-01-15T10:51:27;98978.44;;;2.15;100.00
80323;BME280;69636;52.372;13.610;2024-01-15T10:53:56;98975.13;;;2.13;100.00
80323;BME280;69636;52.372;13.610;2024-01-15T10:56:25;98980.38;;;2.13;100.00
80323;BME280;69636;52.372;13.610;2024-01-15T10:58:56;98977.75;;;2.13;100.00
80323;BME280;69636;52.372;13.610;2024-01-15T11:01:28;98967.13;;;2.14;100.00
80323;BME280;69636;52.372;13.610;2024-01-15T11:03:57;98946.88;;;2.16;99.76
80323;BME280;69636;52.372;13.610;2024-01-15T11:06:27;98957.22;;;2.18;99.87
80323;BME280;69636;52.372;13.610;2024-01-15T11:08:55;98942.91;;;2.12;100.00
80323;BME280;69636;52.372;13.610;2024-01-15T11:11:23;98940.09;;;2.23;100.00
80323;BME280;69636;52.372;13.610;2024-01-15T11:13:50;98947.94;;;2.33;100.00
80323;BME280;69636;52.372;13.610;2024-01-15T11:16:19;98945.81;;;2.36;100.00
80323;BME280;69636;52.372;13.610;2024-01-15T11:19:02;98951.97;;;2.45;99.82
80323;BME280;69636;52.372;13.610;2024-01-15T11:21:30;98939.72;;;2.46;99.07
80323;BME280;69636;52.372;13.610;2024-01-15T11:23:59;98953.44;;;2.57;98.33
80323;BME280;69636;52.372;13.610;2024-01-15T11:26:31;98959.69;;;2.74;98.67
80323;BME280;69636;52.372;13.610;2024-01-15T11:29:00;98961.31;;;2.75;98.35
80323;BME280;69636;52.372;13.610;2024-01-15T11:31:56;98966.41;;;2.59;98.05
80323;BME280;69636;52.372;13.610;2024-01-15T11:34:52;98966.31;;;2.41;99.87
80323;BME280;69636;52.372;13.610;2024-01-15T11:37:20;98965.94;;;2.36;100.00
80323;BME280;69636;52.372;13.610;2024-01-15T11:39:48;98969.59;;;2.25;100.00
80323;BME280;69636;52.372;13.610;2024-01-15T11:42:19;98976.22;;;2.20;100.00
80323;BME280;69636;52.372;13.610;2024-01-15T11:44:47;98978.03;;;2.10;100.00
80323;BME280;69636;52.372;13.610;2024-01-15T11:47:29;98981.78;;;1.97;100.00
80323;BME280;69636;52.372;13.610;2024-01-15T11:50:03;98994.34;;;1.94;100.00
80323;BME280;69636;52.372;13.610;2024-01-15T11:52:33;98987.63;;;1.82;100.00
80323;BME280;69636;52.372;13.610;2024-01-15T11:55:06;98991.63;;;1.76;100.00
80323;BME280;69636;52.372;13.610;2024-01-15T11:57:40;98981.84;;;1.78;100.00
80323;BME280;69636;52.372;13.610;2024-01-15T12:00:09;98996.72;;;1.78;100.00
80323;BME280;69636;52.372;13.610;2024-01-15T12:02:38;98990.25;;;1.72;100.00
80323;BME280;69636;52.372;13.610;2024-01-15T12:05:05;98981.59;;;1.72;100.00
80323;BME280;69636;52.372;13.610;2024-01-15T12:07:33;98985.72;;;1.74;100.00
80323;BME280;69636;52.372;13.610;2024-01-15T12:10:00;98986.69;;;1.73;100.00
80323;BME280;69636;52.372;13.610;2024-01-15T12:12:37;98990.94;;;1.74;100.00
80323;BME280;69636;52.372;13.610;2024-01-15T12:15:07;98986.69;;;1.73;100.00
80323;BME280;69636;52.372;13.610;2024-01-15T12:17:34;98991.50;;;1.78;100.00
80323;BME280;69636;52.372;13.610;2024-01-15T12:20:04;98989.69;;;1.78;100.00
80323;BME280;69636;52.372;13.610;2024-01-15T12:22:32;99003.34;;;1.72;100.00
80323;BME280;69636;52.372;13.610;2024-01-15T12:25:19;99009.13;;;1.66;100.00
80323;BME280;69636;52.372;13.610;2024-01-15T12:27:47;99014.22;;;1.58;100.00
80323;BME280;69636;52.372;13.610;2024-01-15T12:30:15;99015.16;;;1.57;100.00
80323;BME280;69636;52.372;13.610;2024-01-15T12:32:43;99008.00;;;1.59;100.00
80323;BME280;69636;52.372;13.610;2024-01-15T12:35:11;98998.66;;;1.66;100.00
80323;BME280;69636;52.372;13.610;2024-01-15T12:37:39;99007.75;;;1.62;100.00
80323;BME280;69636;52.372;13.610;2024-01-15T12:40:08;99006.78;;;1.63;100.00
80323;BME280;69636;52.372;13.610;2024-01-15T12:42:35;99009.94;;;1.66;100.00
80323;BME280;69636;52.372;13.610;2024-01-15T12:45:03;98996.59;;;1.60;100.00
80323;BME280;69636;52.372;13.610;2024-01-15T12:47:32;99005.41;;;1.59;100.00
80323;BME280;69636;52.372;13.610;2024-01-15T12:50:00;99008.84;;;1.59;100.00
80323;BME280;69636;52.372;13.610;2024-01-15T12:52:43;99011.72;;;1.66;100.00
80323;BME280;69636;52.372;13.610;2024-01-15T12:55:11;99010.94;;;1.56;100.00